createdAt,value
2023-05-13T00:01:08.207Z,46.83
2023-05-13T00:03:38.710Z,46.25
2023-05-13T00:06:09.342Z,47.22
2023-05-13T00:08:39.608Z,45.99
2023-05-13T00:11:10.679Z,49.71
2023-05-13T00:13:41.205Z,46.86
2023-05-13T00:16:11.514Z,47.11
2023-05-13T00:18:41.864Z,47.71
2023-05-13T00:21:12.194Z,47.85
2023-05-13T00:23:42.506Z,45.23
2023-05-13T00:26:12.719Z,46.11
2023-05-13T00:28:43.132Z,45.92
2023-05-13T00:37:17.335Z,47.68
2023-05-13T00:40:17.427Z,47.71
2023-05-13T00:43:13.855Z,46.60
2023-05-13T00:45:45.887Z,46.60
2023-05-13T00:48:16.567Z,47.50
2023-05-13T00:50:46.998Z,48.26
2023-05-13T00:53:17.955Z,48.21
2023-05-13T00:55:48.390Z,48.63
2023-05-13T00:58:18.683Z,47.83
2023-05-13T01:00:54.833Z,48.00
2023-05-13T01:03:55.424Z,48.87
2023-05-13T01:06:35.783Z,48.87
2023-05-13T01:11:52.410Z,48.47
2023-05-13T01:14:31.497Z,49.77
2023-05-13T01:17:15.199Z,48.42
2023-05-13T01:20:06.296Z,48.66
2023-05-13T01:22:36.807Z,48.58
2023-05-13T01:25:08.554Z,51.99
2023-05-13T01:27:39.411Z,54.83
2023-05-13T01:30:12.102Z,54.83
2023-05-13T01:32:42.972Z,52.78
2023-05-13T01:35:14.284Z,52.78
2023-05-13T01:37:45.178Z,54.11
2023-05-13T01:40:31.251Z,55.19
2023-05-13T01:42:48.201Z,53.81
2023-05-13T01:45:19.334Z,53.81
2023-05-13T01:47:49.854Z,53.26
2023-05-13T01:50:20.359Z,53.26
2023-05-13T01:52:52.148Z,52.93
2023-05-13T01:55:22.291Z,52.93
2023-05-13T01:57:53.380Z,54.65
2023-05-13T02:00:23.929Z,53.81
2023-05-13T02:02:54.651Z,53.81
2023-05-13T02:05:25.077Z,53.33
2023-05-13T02:07:55.513Z,53.67
2023-05-13T02:10:25.968Z,53.67
2023-05-13T02:12:57.170Z,55.78
2023-05-13T02:15:27.562Z,55.53
2023-05-13T02:17:58.170Z,55.20
2023-05-13T02:20:28.611Z,55.20
2023-05-13T02:22:59.013Z,55.76
2023-05-13T02:25:29.537Z,56.92
2023-05-13T02:28:00.005Z,57.22
2023-05-13T02:30:30.293Z,57.01
2023-05-13T02:33:02.059Z,56.50
2023-05-13T02:35:33.614Z,56.50
2023-05-13T02:38:04.063Z,55.59
2023-05-13T02:40:35.790Z,53.84
2023-05-13T02:43:06.122Z,54.53
2023-05-13T02:45:36.552Z,54.39
2023-05-13T02:48:06.980Z,54.74
2023-05-13T02:50:37.438Z,53.55
2023-05-13T02:53:07.913Z,53.70
2023-05-13T02:55:38.279Z,53.26
2023-05-13T02:58:09.931Z,53.40
2023-05-13T03:00:40.247Z,53.40
2023-05-13T03:03:10.648Z,53.35
2023-05-13T03:05:41.330Z,53.64
2023-05-13T03:08:13.980Z,54.88
2023-05-13T03:10:44.358Z,56.36
2023-05-13T03:13:14.714Z,56.36
2023-05-13T03:15:47.750Z,52.03
2023-05-13T03:18:18.192Z,52.41
2023-05-13T03:20:48.517Z,52.48
2023-05-13T03:23:18.798Z,52.55
2023-05-13T03:25:49.316Z,55.55
2023-05-13T03:28:22.218Z,54.60
2023-05-13T03:30:52.855Z,54.50
2023-05-13T03:33:25.938Z,56.02
2023-05-13T03:35:56.247Z,55.89
2023-05-13T03:38:26.506Z,53.41
2023-05-13T03:40:56.804Z,53.33
2023-05-13T03:43:27.136Z,53.04
2023-05-13T03:45:57.564Z,53.45
2023-05-13T03:48:32.854Z,53.81
2023-05-13T03:51:00.336Z,53.76
2023-05-13T03:53:33.833Z,52.92
2023-05-13T03:56:04.303Z,52.62
2023-05-13T03:58:34.684Z,52.63
2023-05-13T04:01:08.262Z,52.63
2023-05-13T04:03:44.520Z,54.07
2023-05-13T04:06:14.908Z,52.31
2023-05-13T04:08:45.470Z,52.86
2023-05-13T04:11:15.962Z,53.79
2023-05-13T04:13:46.375Z,53.38
2023-05-13T04:16:20.598Z,53.38
2023-05-13T04:18:50.934Z,49.96
2023-05-13T04:21:21.277Z,50.03
2023-05-13T04:23:51.953Z,50.03
2023-05-13T04:26:22.246Z,52.68
2023-05-13T04:28:54.429Z,50.45
2023-05-13T04:31:24.769Z,50.74
2023-05-13T04:33:55.400Z,51.99
2023-05-13T04:36:25.582Z,51.99
2023-05-13T04:38:55.925Z,51.48
2023-05-13T04:41:26.174Z,51.62
2023-05-13T04:43:56.667Z,50.10
2023-05-13T04:46:27.012Z,49.71
2023-05-13T04:48:57.190Z,48.56
2023-05-13T04:51:28.975Z,48.56
2023-05-13T04:54:01.329Z,48.37
2023-05-13T04:56:35.253Z,46.46
2023-05-13T04:59:05.591Z,46.46
2023-05-13T05:01:37.140Z,46.55
2023-05-13T05:04:10.455Z,43.92
2023-05-13T05:06:41.636Z,45.44
2023-05-13T05:09:14.837Z,44.79
2023-05-13T05:11:54.633Z,42.97
2023-05-13T05:14:25.185Z,42.86
2023-05-13T05:17:03.121Z,43.75
2023-05-13T05:19:35.307Z,43.75
2023-05-13T05:22:05.804Z,41.32
2023-05-13T05:24:36.246Z,39.41
2023-05-13T05:27:09.509Z,39.41
2023-05-13T05:30:16.368Z,38.63
2023-05-13T05:32:47.373Z,38.63
2023-05-13T05:35:17.779Z,40.04
2023-05-13T05:37:51.582Z,40.01
2023-05-13T05:40:22.210Z,39.31
2023-05-13T05:42:52.770Z,39.31
2023-05-13T05:45:23.145Z,39.04
2023-05-13T05:47:56.937Z,37.38
2023-05-13T05:50:29.787Z,36.37
2023-05-13T05:53:01.208Z,34.84
2023-05-13T05:55:33.384Z,34.84
2023-05-13T05:58:05.615Z,35.26
2023-05-13T06:00:36.743Z,35.47
2023-05-13T06:03:07.282Z,34.66
2023-05-13T06:05:38.787Z,35.72
2023-05-13T06:08:09.463Z,33.93
2023-05-13T06:10:40.241Z,33.93
2023-05-13T06:13:10.737Z,33.72
2023-05-13T06:15:41.386Z,32.79
2023-05-13T06:18:14.263Z,32.79
2023-05-13T06:20:45.019Z,32.27
2023-05-13T06:23:16.692Z,32.71
2023-05-13T06:25:47.046Z,33.61
2023-05-13T06:28:17.621Z,31.49
2023-05-13T06:30:47.954Z,30.84
2023-05-13T06:33:18.479Z,30.84
2023-05-13T06:35:48.722Z,29.11
2023-05-13T06:38:19.144Z,28.58
2023-05-13T06:40:49.386Z,28.58
2023-05-13T06:43:19.629Z,29.15
2023-05-13T06:45:50.333Z,28.77
2023-05-13T06:48:20.607Z,28.77
2023-05-13T06:50:50.926Z,28.93
2023-05-13T06:53:21.325Z,27.28
2023-05-13T06:55:51.649Z,27.28
2023-05-13T06:58:21.905Z,27.90
2023-05-13T07:00:57.049Z,27.94
2023-05-13T07:03:24.491Z,27.58
2023-05-13T07:05:55.442Z,26.98
2023-05-13T07:08:27.034Z,28.11
2023-05-13T07:11:02.540Z,24.61
2023-05-13T07:13:36.028Z,26.56
2023-05-13T07:16:08.636Z,26.56
2023-05-13T07:18:40.979Z,26.65
2023-05-13T07:24:03.145Z,25.68
2023-05-13T07:26:33.515Z,25.58
2023-05-13T07:29:06.759Z,25.85
2023-05-13T07:31:39.410Z,25.26
2023-05-13T07:34:11.131Z,24.71
2023-05-13T07:36:41.574Z,24.41
2023-05-13T07:39:12.020Z,24.61
2023-05-13T07:41:42.426Z,26.16
2023-05-13T07:44:15.004Z,24.67
2023-05-13T07:46:45.354Z,25.56
2023-05-13T07:49:17.939Z,26.23
2023-05-13T07:51:48.301Z,24.89
2023-05-13T07:54:19.964Z,24.77
2023-05-13T07:56:52.243Z,23.85
2023-05-13T07:59:22.737Z,23.85
2023-05-13T08:01:53.062Z,23.78
2023-05-13T08:04:24.793Z,24.52
2023-05-13T08:06:54.970Z,25.12
2023-05-13T08:09:25.886Z,23.30
2023-05-13T08:11:56.188Z,23.30
2023-05-13T08:14:26.573Z,24.16
2023-05-13T08:16:57.293Z,24.16
2023-05-13T08:19:32.517Z,24.32
2023-05-13T08:22:06.634Z,24.03
2023-05-13T08:24:38.381Z,23.78
2023-05-13T08:27:08.643Z,23.42
2023-05-13T08:29:41.764Z,23.80
2023-05-13T08:32:12.258Z,23.94
2023-05-13T08:34:42.446Z,23.94
2023-05-13T08:37:18.610Z,23.59
2023-05-13T08:39:52.747Z,22.44
2023-05-13T08:42:24.552Z,22.44
2023-05-13T08:44:56.310Z,24.01
2023-05-13T08:47:51.131Z,24.13
2023-05-13T08:50:23.829Z,24.13
2023-05-13T08:52:54.955Z,23.71
2023-05-13T08:55:35.261Z,23.71
2023-05-13T08:58:07.527Z,24.75
2023-05-13T09:00:40.042Z,24.75
2023-05-13T09:03:13.688Z,22.26
2023-05-13T09:05:47.527Z,22.26
2023-05-13T09:08:19.477Z,23.45
2023-05-13T09:10:51.737Z,22.98
2023-05-13T09:13:22.553Z,22.98
2023-05-13T09:15:56.154Z,23.73
2023-05-13T09:18:32.364Z,23.60
2023-05-13T09:21:25.589Z,23.60
2023-05-13T09:24:10.924Z,24.61
2023-05-13T09:26:44.353Z,24.61
2023-05-13T09:29:28.430Z,25.32
2023-05-13T09:32:07.096Z,25.32
2023-05-13T09:34:46.171Z,26.14
2023-05-13T09:37:18.280Z,25.67
2023-05-13T09:39:51.717Z,25.67
2023-05-13T09:42:22.728Z,23.38
2023-05-13T09:44:54.782Z,22.94
2023-05-13T09:47:26.668Z,22.94
2023-05-13T09:50:00.360Z,23.86
2023-05-13T09:52:31.935Z,23.86
2023-05-13T09:55:03.672Z,24.68
2023-05-13T09:57:34.374Z,24.85
2023-05-13T10:00:17.945Z,25.66
2023-05-13T10:02:42.422Z,25.66
2023-05-13T10:05:29.780Z,25.07
2023-05-13T10:08:02.414Z,25.53
2023-05-13T10:10:35.319Z,25.53
2023-05-13T10:13:14.478Z,25.83
2023-05-13T10:15:50.160Z,27.64
2023-05-13T10:18:25.392Z,25.22
2023-05-13T10:21:00.211Z,26.81
2023-05-13T10:23:33.172Z,27.70
2023-05-13T10:26:06.735Z,27.70
2023-05-13T10:28:38.536Z,25.94
2023-05-13T10:31:10.429Z,24.79
2023-05-13T10:33:41.901Z,24.79
2023-05-13T10:36:35.922Z,24.92
2023-05-13T10:39:21.137Z,26.13
2023-05-13T10:42:16.452Z,26.13
2023-05-13T10:44:46.756Z,24.24
2023-05-13T10:47:17.950Z,24.22
2023-05-13T10:50:11.974Z,22.88
2023-05-13T10:52:47.599Z,23.76
2023-05-13T10:55:19.943Z,22.83
2023-05-13T10:58:10.059Z,22.95
2023-05-13T11:00:42.321Z,22.95
2023-05-13T11:03:29.983Z,23.55
2023-05-13T11:06:16.193Z,24.84
2023-05-13T11:08:53.671Z,25.48
2023-05-13T11:11:31.974Z,27.04
2023-05-13T11:14:23.435Z,27.04
2023-05-13T11:16:56.530Z,26.36
2023-05-13T11:19:34.877Z,24.52
2023-05-13T11:22:37.963Z,24.52
2023-05-13T11:25:10.142Z,27.62
2023-05-13T11:27:42.655Z,27.62
2023-05-13T11:30:29.059Z,27.04
2023-05-13T11:33:01.360Z,26.55
2023-05-13T11:35:33.169Z,26.55
2023-05-13T11:38:04.168Z,22.56
2023-05-13T11:40:36.096Z,22.56
2023-05-13T11:43:16.389Z,22.24
2023-05-13T11:45:48.038Z,22.24
2023-05-13T11:48:25.058Z,21.69
2023-05-13T11:50:58.952Z,23.02
2023-05-13T11:53:30.909Z,23.02
2023-05-13T11:56:14.880Z,23.00
2023-05-13T11:58:45.485Z,22.90
2023-05-13T12:01:18.235Z,22.90
2023-05-13T12:03:48.541Z,23.92
2023-05-13T12:06:19.609Z,23.92
2023-05-13T12:08:50.586Z,23.24
2023-05-13T12:11:22.359Z,23.37
2023-05-13T12:13:54.464Z,25.19
2023-05-13T12:16:29.328Z,25.19
2023-05-13T12:19:06.228Z,23.87
2023-05-13T12:21:38.594Z,25.60
2023-05-13T12:24:27.001Z,25.60
2023-05-13T12:27:01.696Z,24.06
2023-05-13T12:29:43.061Z,27.86
2023-05-13T12:32:16.667Z,27.86
2023-05-13T12:34:49.303Z,24.91
2023-05-13T12:37:19.906Z,23.30
2023-05-13T12:39:51.781Z,23.30
2023-05-13T12:42:22.238Z,23.85
2023-05-13T12:44:52.895Z,23.09
2023-05-13T12:47:23.118Z,23.09
2023-05-13T12:49:55.421Z,21.44
2023-05-13T12:52:28.853Z,21.44
2023-05-13T12:54:59.195Z,23.51
2023-05-13T12:57:31.586Z,23.51
2023-05-13T13:00:01.557Z,23.45
2023-05-13T13:02:34.594Z,24.60
2023-05-13T13:05:06.962Z,24.60
2023-05-13T13:07:37.902Z,24.78
2023-05-13T13:10:09.012Z,25.51
2023-05-13T13:12:42.323Z,26.64
2023-05-13T13:15:12.910Z,26.64
2023-05-13T13:17:43.832Z,25.91
2023-05-13T13:20:14.472Z,25.91
2023-05-13T13:22:44.997Z,28.42
2023-05-13T13:25:16.517Z,25.98
2023-05-13T13:27:46.990Z,23.83
2023-05-13T13:30:17.301Z,22.82
2023-05-13T13:32:48.104Z,23.53
2023-05-13T13:35:18.540Z,22.30
2023-05-13T13:37:48.929Z,23.87
2023-05-13T13:40:20.188Z,22.61
2023-05-13T13:42:50.742Z,22.61
2023-05-13T13:45:21.113Z,22.63
2023-05-13T13:47:51.351Z,22.07
2023-05-13T13:50:21.908Z,23.18
2023-05-13T13:52:52.529Z,22.19
2023-05-13T13:55:30.236Z,22.13
2023-05-13T13:58:03.993Z,23.25
2023-05-13T14:00:34.553Z,23.25
2023-05-13T14:03:07.113Z,24.00
2023-05-13T14:05:38.863Z,25.17
2023-05-13T14:08:12.458Z,25.29
2023-05-13T14:10:46.264Z,25.44
2023-05-13T14:13:16.586Z,25.44
2023-05-13T14:15:51.602Z,24.52
2023-05-13T14:18:25.516Z,25.29
2023-05-13T14:20:55.688Z,25.46
2023-05-13T14:23:30.307Z,25.46
2023-05-13T14:26:02.414Z,26.81
2023-05-13T14:28:39.913Z,27.30
2023-05-13T14:31:16.121Z,27.30
2023-05-13T14:34:00.834Z,27.82
2023-05-13T14:36:37.904Z,29.28
2023-05-13T14:39:10.430Z,29.28
2023-05-13T14:41:41.755Z,28.48
2023-05-13T14:44:16.707Z,27.69
2023-05-13T14:46:51.328Z,27.69
2023-05-13T14:49:21.756Z,25.72
2023-05-13T14:51:52.098Z,25.35
2023-05-13T14:54:25.148Z,25.35
2023-05-13T14:56:55.629Z,24.16
2023-05-13T14:59:26.027Z,24.16
2023-05-13T15:01:58.466Z,24.52
2023-05-13T15:04:30.496Z,24.83
2023-05-13T15:07:05.287Z,24.73
2023-05-13T15:09:35.806Z,26.71
2023-05-13T15:12:06.903Z,26.71
2023-05-13T15:14:42.917Z,25.94
2023-05-13T15:17:15.320Z,28.04
2023-05-13T15:19:45.588Z,26.87
2023-05-13T15:22:17.985Z,25.57
2023-05-13T15:24:48.404Z,27.52
2023-05-13T15:27:18.843Z,27.52
2023-05-13T15:29:49.175Z,27.06
2023-05-13T15:32:19.591Z,28.10
2023-05-13T15:34:49.890Z,29.61
2023-05-13T15:37:20.368Z,29.77
2023-05-13T15:39:50.979Z,28.58
2023-05-13T15:42:30.589Z,28.58
2023-05-13T15:45:02.375Z,28.40
2023-05-13T15:47:33.125Z,28.40
2023-05-13T15:50:05.521Z,28.89
2023-05-13T15:52:36.176Z,28.89
2023-05-13T15:55:08.455Z,27.87
2023-05-13T15:57:49.519Z,27.87
2023-05-13T16:00:22.488Z,29.99
2023-05-13T16:02:54.639Z,31.36
2023-05-13T16:05:29.361Z,31.36
2023-05-13T16:08:01.442Z,28.72
2023-05-13T16:13:47.233Z,29.33
2023-05-13T16:19:17.281Z,29.48
2023-05-13T16:21:51.246Z,29.97
2023-05-13T16:24:32.192Z,29.97
2023-05-13T16:27:04.008Z,30.30
2023-05-13T16:29:37.266Z,29.80
2023-05-13T16:32:13.173Z,29.87
2023-05-13T16:34:46.407Z,31.34
2023-05-13T16:40:15.404Z,29.88
2023-05-13T16:42:48.969Z,30.77
2023-05-13T16:45:44.688Z,30.77
2023-05-13T16:47:54.130Z,29.72
2023-05-13T16:50:33.051Z,31.10
2023-05-13T16:53:04.752Z,33.25
2023-05-13T16:55:38.249Z,33.25
2023-05-13T16:58:20.223Z,32.81
2023-05-13T17:00:49.107Z,33.28
2023-05-13T17:07:09.478Z,33.66
2023-05-13T17:09:38.655Z,33.56
2023-05-13T17:12:16.326Z,33.56
2023-05-13T17:14:51.833Z,35.88
2023-05-13T17:17:25.965Z,35.71
2023-05-13T17:20:15.660Z,35.32
2023-05-13T17:22:49.758Z,35.32
2023-05-13T17:25:24.174Z,35.84
2023-05-13T17:27:58.936Z,35.84
2023-05-13T17:30:47.095Z,36.46
2023-05-13T17:33:19.491Z,36.46
2023-05-13T17:35:55.113Z,35.33
2023-05-13T17:38:29.167Z,35.33
2023-05-13T17:41:07.530Z,35.54
2023-05-13T17:43:38.621Z,37.03
2023-05-13T17:46:09.207Z,36.85
2023-05-13T17:48:43.374Z,37.57
2023-05-13T17:51:16.874Z,38.06
2023-05-13T17:53:53.087Z,38.43
2023-05-13T17:56:25.033Z,37.10
2023-05-13T17:58:55.507Z,37.10
2023-05-13T18:01:26.040Z,37.30
2023-05-13T18:03:59.358Z,38.01
2023-05-13T18:06:34.264Z,38.01
2023-05-13T18:09:07.148Z,38.41
2023-05-13T18:11:50.690Z,39.91
2023-05-13T18:14:25.651Z,39.91
2023-05-13T18:16:56.085Z,38.31
2023-05-13T18:19:40.182Z,38.31
2023-05-13T18:22:18.873Z,39.99
2023-05-13T18:24:52.313Z,38.33
2023-05-13T18:27:22.786Z,39.21
2023-05-13T18:29:56.933Z,39.21
2023-05-13T18:32:30.420Z,39.59
2023-05-13T18:35:00.901Z,39.18
2023-05-13T18:37:39.320Z,39.16
2023-05-13T18:40:12.975Z,39.21
2023-05-13T18:42:46.352Z,39.71
2023-05-13T18:45:16.807Z,39.91
2023-05-13T18:47:48.967Z,39.91
2023-05-13T18:50:23.088Z,40.99
2023-05-13T18:53:03.021Z,40.99
2023-05-13T18:55:36.227Z,41.88
2023-05-13T18:58:09.409Z,42.27
2023-05-13T19:00:51.034Z,41.04
2023-05-13T19:03:22.364Z,40.53
2023-05-13T19:05:58.330Z,40.74
2023-05-13T19:08:27.501Z,40.98
2023-05-13T19:11:00.513Z,40.98
2023-05-13T19:13:43.401Z,40.43
2023-05-13T19:16:04.355Z,40.31
2023-05-13T19:18:35.595Z,40.67
2023-05-13T19:21:06.044Z,42.87
2023-05-13T19:23:38.295Z,41.63
2023-05-13T19:26:11.453Z,40.03
2023-05-13T19:28:43.687Z,41.35
2023-05-13T19:31:18.386Z,42.65
2023-05-13T19:33:51.638Z,42.65
2023-05-13T19:36:23.779Z,43.49
2023-05-13T19:38:54.955Z,44.85
2023-05-13T19:41:25.490Z,44.85
2023-05-13T19:43:55.863Z,44.05
2023-05-13T19:46:26.383Z,42.93
2023-05-13T19:48:58.261Z,43.98
2023-05-13T19:51:28.761Z,43.38
2023-05-13T19:53:59.144Z,42.40
2023-05-13T19:56:32.981Z,41.13
2023-05-13T19:59:04.818Z,41.65
2023-05-13T20:01:35.314Z,40.97
2023-05-13T20:04:08.314Z,41.45
2023-05-13T20:06:38.979Z,46.94
2023-05-13T20:09:09.609Z,47.33
2023-05-13T20:11:40.200Z,47.26
2023-05-13T20:14:11.218Z,46.48
2023-05-13T20:16:42.147Z,47.26
2023-05-13T20:19:12.695Z,47.99
2023-05-13T20:21:43.065Z,48.87
2023-05-13T20:24:19.412Z,48.87
2023-05-13T20:26:49.953Z,47.45
2023-05-13T20:29:23.433Z,48.58
2023-05-13T20:31:53.920Z,48.99
2023-05-13T20:34:24.356Z,46.98
2023-05-13T20:36:54.675Z,45.66
2023-05-13T20:39:25.851Z,45.94
2023-05-13T20:41:57.207Z,47.18
2023-05-13T20:44:28.235Z,47.07
2023-05-13T20:47:03.359Z,48.25
2023-05-13T20:49:32.596Z,48.25
2023-05-13T20:52:08.509Z,46.08
2023-05-13T20:54:39.554Z,48.38
2023-05-13T20:57:11.381Z,48.86
2023-05-13T20:59:41.748Z,48.86
2023-05-13T21:02:13.613Z,49.92
2023-05-13T21:04:43.931Z,47.53
2023-05-13T21:07:14.470Z,46.57
2023-05-13T21:09:44.765Z,46.35
2023-05-13T21:12:14.978Z,48.18
2023-05-13T21:14:46.787Z,48.18
2023-05-13T21:17:17.212Z,48.30
2023-05-13T21:19:54.712Z,49.09
2023-05-13T21:22:25.042Z,49.09
2023-05-13T21:24:55.614Z,49.98
2023-05-13T21:27:27.579Z,50.32
2023-05-13T21:30:06.290Z,50.32
2023-05-13T21:32:36.685Z,50.11
2023-05-13T21:35:07.830Z,51.42
2023-05-13T21:37:47.569Z,52.02
2023-05-13T21:40:18.355Z,53.22
2023-05-13T21:42:48.701Z,53.62
2023-05-13T21:45:19.334Z,53.24
2023-05-13T21:47:49.791Z,52.74
2023-05-13T21:50:20.146Z,52.74
2023-05-13T21:52:50.458Z,51.96
2023-05-13T21:55:20.820Z,47.52
2023-05-13T21:57:51.191Z,47.52
2023-05-13T22:00:21.887Z,46.34
2023-05-13T22:02:54.857Z,49.05
2023-05-13T22:05:25.441Z,47.70
2023-05-13T22:08:01.604Z,45.63
2023-05-13T22:10:35.039Z,45.35
2023-05-13T22:13:12.535Z,45.68
2023-05-13T22:15:47.540Z,44.81
2023-05-13T22:18:19.558Z,43.93
2023-05-13T22:20:49.897Z,45.75
2023-05-13T22:23:20.351Z,46.43
2023-05-13T22:25:52.219Z,48.54
2023-05-13T22:28:24.277Z,48.11
2023-05-13T22:31:03.708Z,48.80
2023-05-13T22:33:36.984Z,48.50
2023-05-13T22:36:16.254Z,48.97
2023-05-13T22:38:47.928Z,48.00
2023-05-13T22:41:18.350Z,48.02
2023-05-13T22:43:55.484Z,48.25
2023-05-13T22:46:26.223Z,48.25
2023-05-13T22:49:04.790Z,47.76
2023-05-13T22:51:36.779Z,47.76
2023-05-13T22:54:07.746Z,47.62
2023-05-13T22:56:45.280Z,48.35
2023-05-13T22:59:28.887Z,48.35
2023-05-13T23:02:07.219Z,49.37
2023-05-13T23:04:37.758Z,49.37
2023-05-13T23:07:08.807Z,47.50
2023-05-13T23:09:40.664Z,50.37
2023-05-13T23:12:11.024Z,50.37
2023-05-13T23:14:41.434Z,47.96
2023-05-13T23:17:12.015Z,44.78
2023-05-13T23:19:42.222Z,44.78
2023-05-13T23:22:12.922Z,46.48
2023-05-13T23:24:43.951Z,46.48
2023-05-13T23:27:14.370Z,48.18
2023-05-13T23:29:44.706Z,47.12
2023-05-13T23:32:15.150Z,50.05
2023-05-13T23:34:47.536Z,48.51
2023-05-13T23:37:17.995Z,48.51
2023-05-13T23:39:48.439Z,50.75
2023-05-13T23:42:18.733Z,51.79
2023-05-13T23:44:48.978Z,52.48
2023-05-13T23:47:21.677Z,52.48
2023-05-13T23:49:52.187Z,52.58
2023-05-13T23:52:22.386Z,53.12
2023-05-13T23:54:52.810Z,53.39
2023-05-13T23:57:29.059Z,54.19
2023-05-13T23:59:59.495Z,55.15
